RBB weather

Borba Airport
Borba, Amazonas, Brazil

Public forecast

Using degrees Celsius for public forecast. Weather courtesy of forecast.io.

Closest aviation weather report (METAR) to Borba Airport

Closest report is Ponta Pelada Airport, 79.1 nm (146.5 km) NNW. Retrieved 2020/07/12 09:00 UTC (53 minutes ago):

SBMN 120900Z 02003KT CAVOK 25/23 Q1012

Closest aviation forecast (TAF) to Borba Airport

Closest forecast is Ponta Pelada Airport, 79.1 nm (146.5 km) NNW. Retrieved 2020/07/12 06:00 UTC (4 hours ago):

TAF SBMN 120300Z 1206/1218 07005KT 9999 SCT020 TN24/1206Z TX28/1218Z BECMG 1216/1218 SCT020 FEW030TCU RMK PED